WATT/KOE METAR and TAF weather

Enter ICAO airport designator
Station Type Date Time Source
WATT METAR 2019/05/19 12:00 UTC NOAA

WATT 191200Z 11007KT 8000 FEW018 27/23 Q1013 NOSIG


Station Type Date Time Source
WATT Decoded METAR 2019/05/19 12:00 UTC NOAA

Station name not available
May 19, 2019 - 08:00 AM EDT / 2019.05.19 1200 UTC
Wind: from the ESE (110 degrees) at 8 MPH (7 KT):0
Visibility: 4 mile(s):0
Sky conditions: mostly clear
Temperature: 80 F (27 C)
Dew Point: 73 F (23 C)
Relative Humidity: 78%
Pressure (altimeter): 29.91 in. Hg (1013 hPa)
ob: WATT 191200Z 11007KT 8000 FEW018 27/23 Q1013 NOSIG
cycle: 12

Station Type Date Time Source
WATT TAF 2019/05/19 18:00 UTC NOAA

TAF WATT 191700Z 1918/2018 10006KT 8000 FEW018
BECMG 2001/2003 13014KT

Example: see airport list